Time;durP1;ratioP1;P1;durP2;ratioP2;P2;SDS_P1;SDS_P2;PMS_P1;PMS_P2;Temp;Humidity;BMP_temperature;BMP_pressure;BME280_temperature;BME280_humidity;BME280_pressure;Samples;Min_cycle;Max_cycle;Signal;HPM_P1;HPM_P2
2022/03/26 00:01:57;;;;;;;39.72;25.73;;;;;;;8.67;60.94;103059.78;5068406;28;20035;-78
2022/03/26 00:04:22;;;;;;;38.45;24.83;;;;;;;8.64;61.08;103062.50;5069775;28;20426;-78
2022/03/26 00:06:48;;;;;;;40.78;24.15;;;;;;;8.60;61.37;103054.78;5060774;28;20024;-76
2022/03/26 00:09:13;;;;;;;47.40;25.77;;;;;;;8.55;61.40;103060.16;5069193;28;20029;-76
2022/03/26 00:11:39;;;;;;;38.85;23.45;;;;;;;8.53;61.49;103061.13;5068301;28;20062;-76
2022/03/26 00:14:04;;;;;;;45.85;26.25;;;;;;;8.46;61.59;103049.94;5068142;28;20024;-76
2022/03/26 00:16:29;;;;;;;44.13;25.30;;;;;;;8.40;61.78;103055.34;5069215;28;20103;-76
2022/03/26 00:18:55;;;;;;;42.30;25.98;;;;;;;8.28;62.15;103055.69;5069607;28;20020;-76
2022/03/26 00:21:21;;;;;;;44.33;26.63;;;;;;;8.24;62.79;103054.06;5068171;28;20032;-77
2022/03/26 00:23:46;;;;;;;42.60;25.08;;;;;;;8.14;62.45;103054.34;5053173;28;20055;-76
2022/03/26 00:26:12;;;;;;;40.53;25.23;;;;;;;8.08;62.46;103064.13;5068041;28;20120;-76
2022/03/26 00:28:38;;;;;;;39.28;24.92;;;;;;;8.00;62.58;103060.84;5063803;28;20035;-76
2022/03/26 00:31:04;;;;;;;38.25;25.88;;;;;;;7.94;62.95;103058.38;5048777;28;20500;-76
2022/03/26 00:33:31;;;;;;;48.80;26.38;;;;;;;7.88;63.09;103056.81;5049373;28;20560;-75
2022/03/26 00:35:57;;;;;;;38.42;25.55;;;;;;;7.82;63.76;103051.72;5049119;28;20033;-75
2022/03/26 00:38:23;;;;;;;40.58;25.50;;;;;;;7.76;63.72;103051.91;5063674;28;20537;-75
2022/03/26 00:40:48;;;;;;;41.80;26.02;;;;;;;7.67;63.79;103053.00;5067463;28;20042;-76
2022/03/26 00:43:14;;;;;;;42.33;26.55;;;;;;;7.62;64.21;103054.03;5068770;28;20021;-75
2022/03/26 00:45:40;;;;;;;46.95;26.35;;;;;;;7.55;64.57;103054.16;5069101;28;20350;-75
2022/03/26 00:48:05;;;;;;;45.22;26.40;;;;;;;7.51;64.95;103056.91;5084899;28;20373;-75
2022/03/26 00:50:31;;;;;;;43.95;26.13;;;;;;;7.46;65.15;103062.28;5069473;28;20540;-75
2022/03/26 00:52:56;;;;;;;44.58;25.95;;;;;;;7.41;64.94;103058.06;5074859;28;20536;-76
2022/03/26 00:55:22;;;;;;;42.80;26.38;;;;;;;7.35;65.11;103055.59;5072762;28;20399;-75
2022/03/26 00:57:47;;;;;;;42.03;25.25;;;;;;;7.28;65.76;103057.50;5068127;28;20029;-76
2022/03/26 01:00:14;;;;;;;46.55;26.40;;;;;;;7.21;65.73;103051.56;5067542;28;20476;-75
2022/03/26 01:02:39;;;;;;;44.78;26.02;;;;;;;7.15;65.92;103054.31;5068274;28;20025;-75
2022/03/26 01:05:05;;;;;;;42.47;25.65;;;;;;;7.09;65.83;103050.97;5069360;28;20019;-76
2022/03/26 01:07:32;;;;;;;40.80;26.08;;;;;;;7.02;66.59;103046.78;5067892;28;20035;-75
2022/03/26 01:09:58;;;;;;;42.17;26.13;;;;;;;6.99;66.33;103049.47;5069271;28;20495;-76
2022/03/26 01:12:25;;;;;;;51.13;26.67;;;;;;;6.94;66.86;103046.13;5066487;28;20095;-75
2022/03/26 01:14:52;;;;;;;39.13;25.70;;;;;;;6.85;66.60;103040.22;5065576;28;20029;-76
2022/03/26 01:17:18;;;;;;;45.35;26.48;;;;;;;6.81;67.22;103043.78;5068203;28;20399;-75
2022/03/26 01:19:45;;;;;;;45.13;26.65;;;;;;;6.76;67.03;103040.41;5067206;28;20461;-75
2022/03/26 01:22:10;;;;;;;43.75;26.92;;;;;;;6.71;67.29;103038.78;5084090;28;20063;-76
2022/03/26 01:24:37;;;;;;;41.08;26.95;;;;;;;6.65;67.29;103041.53;5069216;28;20048;-76
2022/03/26 01:27:03;;;;;;;52.42;26.83;;;;;;;6.61;67.62;103038.13;5067213;28;20063;-75
2022/03/26 01:29:28;;;;;;;43.40;26.05;;;;;;;6.58;67.63;103051.28;5066266;28;20032;-75
2022/03/26 01:31:54;;;;;;;44.20;26.85;;;;;;;6.53;68.43;103043.53;5053276;28;20499;-75
2022/03/26 01:34:22;;;;;;;45.10;27.10;;;;;;;6.47;68.33;103048.91;5082876;28;20373;-75
2022/03/26 01:36:48;;;;;;;44.75;27.02;;;;;;;6.44;68.34;103037.66;5072034;28;20033;-76
2022/03/26 01:39:13;;;;;;;44.67;26.98;;;;;;;6.38;68.25;103038.63;5068567;28;20396;-76
2022/03/26 01:41:39;;;;;;;44.63;26.70;;;;;;;6.31;68.48;103036.19;5066594;28;20021;-75
2022/03/26 01:44:04;;;;;;;47.15;26.77;;;;;;;6.31;68.53;103041.41;5068900;28;20104;-75
2022/03/26 01:46:51;;;;;;;42.90;26.02;;;;;;;6.31;68.36;103059.69;5067873;28;20383;-75
2022/03/26 01:49:17;;;;;;;43.95;26.73;;;;;;;6.20;69.18;103058.16;5066830;28;20024;-76
2022/03/26 01:51:43;;;;;;;48.05;27.40;;;;;;;6.18;69.38;103052.13;5068528;28;20037;-76
2022/03/26 01:54:11;;;;;;;46.17;27.35;;;;;;;6.15;69.46;103057.41;5086208;28;20506;-75
2022/03/26 01:56:39;;;;;;;41.40;27.52;;;;;;;6.10;70.01;103055.78;5090806;28;20036;-75
2022/03/26 01:59:06;;;;;;;47.65;27.95;;;;;;;6.08;69.87;103057.56;5089517;28;20024;-75
2022/03/26 02:01:33;;;;;;;43.13;26.17;;;;;;;6.01;69.91;103053.34;5065281;28;20797;-76
2022/03/26 02:03:59;;;;;;;44.92;26.70;;;;;;;5.97;70.30;103053.38;5067808;28;20028;-75
2022/03/26 02:06:29;;;;;;;47.40;28.55;;;;;;;5.92;70.25;103049.16;5052580;28;20461;-75
2022/03/26 02:08:55;;;;;;;45.50;27.45;;;;;;;5.89;69.91;103038.72;5051827;28;20481;-76
2022/03/26 02:11:20;;;;;;;46.88;27.02;;;;;;;5.89;70.57;103051.78;5067630;28;20273;-75
2022/03/26 02:13:56;;;;;;;47.00;26.92;;;;;;;5.88;70.26;103052.69;5067726;28;20059;-76
2022/03/26 02:16:23;;;;;;;41.70;26.75;;;;;;;5.84;71.45;103051.00;5051507;28;20396;-75
2022/03/26 02:18:49;;;;;;;44.15;27.00;;;;;;;5.85;71.06;103050.13;5070509;28;20139;-76
2022/03/26 02:21:16;;;;;;;46.13;27.17;;;;;;;5.81;71.19;103051.94;5059961;28;20040;-76
2022/03/26 02:23:42;;;;;;;49.40;27.50;;;;;;;5.80;71.57;103049.34;5071765;28;20476;-75
2022/03/26 02:26:08;;;;;;;47.65;27.38;;;;;;;5.78;71.11;103040.69;5072158;28;20021;-76
2022/03/26 02:28:34;;;;;;;43.97;27.20;;;;;;;5.74;71.59;103046.84;5071079;28;20048;-75
2022/03/26 02:30:59;;;;;;;48.50;28.42;;;;;;;5.72;71.35;103046.03;5071417;28;20093;-75
2022/03/26 02:33:25;;;;;;;45.13;27.10;;;;;;;5.70;71.50;103043.44;5066341;28;20037;-76
2022/03/26 02:35:50;;;;;;;51.08;27.90;;;;;;;5.68;71.39;103049.59;5060067;28;20033;-76
2022/03/26 02:38:15;;;;;;;48.55;27.63;;;;;;;5.65;72.11;103047.91;5070848;28;20506;-75
2022/03/26 02:40:41;;;;;;;45.17;27.35;;;;;;;5.64;72.13;103049.66;5071250;28;20583;-75
2022/03/26 02:43:06;;;;;;;46.88;27.42;;;;;;;5.62;72.68;103050.56;5071257;28;20073;-76
2022/03/26 02:45:32;;;;;;;50.50;28.10;;;;;;;5.58;71.89;103044.50;5061283;28;20020;-75
2022/03/26 02:47:57;;;;;;;44.17;27.85;;;;;;;5.56;72.92;103051.50;5066431;28;20017;-75
2022/03/26 02:50:23;;;;;;;50.10;28.20;;;;;;;5.53;72.47;103051.56;5051266;28;20031;-76
2022/03/26 02:52:50;;;;;;;44.20;27.98;;;;;;;5.50;72.93;103049.00;5060014;28;20520;-76
2022/03/26 02:55:17;;;;;;;43.17;27.48;;;;;;;5.43;72.98;103050.00;5091246;28;20646;-76
2022/03/26 02:57:43;;;;;;;47.63;27.73;;;;;;;5.41;73.15;103046.56;5091062;28;20024;-75
2022/03/26 03:00:09;;;;;;;39.60;26.05;;;;;;;5.37;72.97;103055.34;5091324;28;20016;-75
2022/03/26 03:02:35;;;;;;;48.92;27.95;;;;;;;5.35;72.81;103051.88;5070929;28;20480;-75
2022/03/26 03:05:01;;;;;;;41.95;26.77;;;;;;;5.32;73.35;103047.59;5059385;28;20028;-77
2022/03/26 03:07:27;;;;;;;46.80;27.00;;;;;;;5.27;73.58;103043.31;5068303;28;20028;-75
2022/03/26 03:09:52;;;;;;;47.03;27.05;;;;;;;5.24;73.39;103039.03;5070466;28;20051;-76
2022/03/26 03:12:18;;;;;;;48.40;27.55;;;;;;;5.21;73.84;103044.28;5070214;28;20025;-75
2022/03/26 03:14:43;;;;;;;43.45;27.45;;;;;;;5.19;73.60;103051.25;5053322;28;20031;-75
2022/03/26 03:17:09;;;;;;;48.42;27.17;;;;;;;5.17;74.20;103041.72;5071298;28;20075;-75
2022/03/26 03:19:35;;;;;;;52.10;27.80;;;;;;;5.14;73.44;103047.00;5070851;28;20032;-75
2022/03/26 03:22:02;;;;;;;49.33;27.02;;;;;;;5.12;74.12;103046.16;5069154;28;20028;-76
2022/03/26 03:24:27;;;;;;;45.72;27.75;;;;;;;5.09;73.96;103051.44;5056238;28;20104;-76
2022/03/26 03:26:53;;;;;;;46.55;27.10;;;;;;;5.07;74.55;103050.59;5070350;28;20510;-72
2022/03/26 03:29:18;;;;;;;46.45;27.27;;;;;;;5.03;74.40;103045.44;5058152;28;20025;-72
2022/03/26 03:31:47;;;;;;;45.60;28.00;;;;;;;5.01;73.81;103048.94;5050892;28;20021;-76
2022/03/26 03:34:13;;;;;;;46.65;27.83;;;;;;;4.96;73.73;103046.41;5049930;28;20057;-76
2022/03/26 03:36:38;;;;;;;45.35;27.65;;;;;;;4.94;74.35;103045.56;5050960;28;20032;-78
2022/03/26 03:39:04;;;;;;;47.10;28.05;;;;;;;4.90;74.58;103043.91;5052490;28;20032;-78
2022/03/26 03:41:29;;;;;;;52.00;27.65;;;;;;;4.89;74.31;103047.41;5057626;28;20027;-79
2022/03/26 03:43:54;;;;;;;46.88;27.25;;;;;;;4.88;74.64;103045.69;5070815;28;20384;-78
2022/03/26 03:46:20;;;;;;;49.85;27.83;;;;;;;4.88;75.43;103045.69;5070683;28;20459;-79
2022/03/26 03:48:45;;;;;;;46.90;28.33;;;;;;;4.82;74.92;103045.78;5070005;28;20055;-76
2022/03/26 03:51:10;;;;;;;53.83;28.17;;;;;;;4.81;74.36;103049.25;5070724;28;20032;-76
2022/03/26 03:53:35;;;;;;;49.60;27.83;;;;;;;4.81;74.84;103054.47;5078043;28;20939;-77
2022/03/26 03:56:01;;;;;;;48.47;28.33;;;;;;;4.83;75.38;103057.06;5049699;28;20028;-76
2022/03/26 03:58:27;;;;;;;48.58;27.55;;;;;;;4.80;76.06;103052.72;5050469;28;20116;-76
2022/03/26 04:00:52;;;;;;;45.47;28.13;;;;;;;4.79;76.13;103058.81;5050035;28;20028;-76
2022/03/26 04:03:17;;;;;;;55.33;29.17;;;;;;;4.78;75.88;103059.72;5047710;28;20028;-76
2022/03/26 04:05:43;;;;;;;55.72;29.50;;;;;;;4.73;75.39;103061.53;5049830;28;20025;-77
2022/03/26 04:08:08;;;;;;;48.20;28.35;;;;;;;4.69;75.46;103058.09;5062836;28;20032;-76
2022/03/26 04:10:34;;;;;;;49.20;27.85;;;;;;;4.69;75.73;103067.66;5068937;28;20078;-76
2022/03/26 04:12:59;;;;;;;43.78;27.65;;;;;;;4.66;76.09;103070.31;5058925;28;20468;-76
2022/03/26 04:15:25;;;;;;;50.20;28.70;;;;;;;4.61;75.92;103064.31;5049018;28;20671;-76
2022/03/26 04:17:52;;;;;;;49.67;28.17;;;;;;;4.60;76.61;103070.41;5048755;28;20625;-76
2022/03/26 04:20:18;;;;;;;47.53;28.10;;;;;;;4.55;76.00;103067.00;5065007;28;20017;-77
2022/03/26 04:22:43;;;;;;;48.08;28.48;;;;;;;4.52;76.80;103064.44;5048913;28;20512;-76
2022/03/26 04:25:09;;;;;;;44.97;28.00;;;;;;;4.51;76.07;103067.94;5049547;28;20150;-76
2022/03/26 04:27:35;;;;;;;42.72;28.17;;;;;;;4.48;76.21;103065.38;5050242;28;20389;-76
2022/03/26 04:30:01;;;;;;;50.72;28.48;;;;;;;4.45;76.61;103065.41;5059362;28;20032;-76
2022/03/26 04:32:27;;;;;;;47.40;27.95;;;;;;;4.40;76.75;103068.94;5049437;28;20430;-76
2022/03/26 04:34:52;;;;;;;45.10;27.25;;;;;;;4.42;76.81;103065.44;5051465;28;20064;-76
2022/03/26 04:37:19;;;;;;;45.80;25.95;;;;;;;4.39;77.48;103061.09;5064617;28;20051;-76
2022/03/26 04:39:44;;;;;;;49.72;28.80;;;;;;;4.36;76.89;103064.63;5069586;28;20012;-76
2022/03/26 04:42:09;;;;;;;49.33;27.80;;;;;;;4.33;76.69;103059.44;5058326;28;20029;-76
2022/03/26 04:44:35;;;;;;;46.28;27.98;;;;;;;4.32;76.99;103052.50;5069487;28;20031;-76
2022/03/26 04:47:01;;;;;;;51.22;27.63;;;;;;;4.29;76.41;103059.50;5067905;28;20032;-76
2022/03/26 04:49:27;;;;;;;51.10;27.70;;;;;;;4.25;76.92;103060.41;5068656;28;20029;-76
2022/03/26 04:51:52;;;;;;;47.92;27.63;;;;;;;4.24;76.88;103062.16;5069111;28;20028;-76
2022/03/26 04:54:18;;;;;;;48.90;28.40;;;;;;;4.22;77.50;103063.06;5086587;28;20024;-73
2022/03/26 04:56:43;;;;;;;52.00;28.42;;;;;;;4.19;77.70;103069.19;5084077;28;20080;-76
2022/03/26 04:59:08;;;;;;;48.17;28.73;;;;;;;4.17;77.79;103062.25;5069063;28;20025;-76
2022/03/26 05:01:34;;;;;;;54.30;28.27;;;;;;;4.16;77.87;103069.22;5060094;28;20028;-76
2022/03/26 05:03:59;;;;;;;47.85;27.88;;;;;;;4.13;77.83;103066.66;5068504;28;20024;-75
2022/03/26 05:06:24;;;;;;;54.38;27.27;;;;;;;4.08;78.10;103061.50;5067580;28;20427;-76
2022/03/26 05:08:50;;;;;;;46.92;27.70;;;;;;;4.06;78.02;103062.41;5066760;28;20222;-75
2022/03/26 05:11:16;;;;;;;50.72;28.27;;;;;;;4.03;78.36;103067.63;5069482;28;20028;-76
2022/03/26 05:13:41;;;;;;;52.33;30.45;;;;;;;4.00;77.58;103067.66;5068488;28;20526;-76
2022/03/26 05:16:07;;;;;;;54.15;31.60;;;;;;;3.96;78.06;103068.56;5069222;28;20029;-76
2022/03/26 05:18:33;;;;;;;55.33;31.52;;;;;;;3.94;78.54;103062.50;5062340;28;20100;-77
2022/03/26 05:20:58;;;;;;;52.20;30.80;;;;;;;3.91;78.18;103072.97;5069444;28;20127;-76
2022/03/26 05:23:25;;;;;;;53.10;30.27;;;;;;;3.90;78.57;103077.31;5069013;28;20055;-76
2022/03/26 05:25:50;;;;;;;52.58;29.42;;;;;;;3.86;78.47;103079.97;5068310;28;20048;-75
2022/03/26 05:28:16;;;;;;;54.58;28.85;;;;;;;3.84;78.62;103079.09;5050793;28;20540;-76
2022/03/26 05:30:42;;;;;;;53.72;28.83;;;;;;;3.82;78.63;103079.13;5052803;28;20111;-77
2022/03/26 05:33:08;;;;;;;45.65;27.50;;;;;;;3.80;78.39;103086.09;5052189;28;20057;-76
2022/03/26 05:35:33;;;;;;;51.80;28.60;;;;;;;3.76;79.26;103085.25;5058946;28;20040;-76
2022/03/26 05:37:58;;;;;;;49.88;29.15;;;;;;;3.75;78.85;103078.34;5088608;28;20032;-76
2022/03/26 05:40:23;;;;;;;51.85;29.10;;;;;;;3.74;78.73;103092.22;5072277;28;20050;-76
2022/03/26 05:42:50;;;;;;;55.33;29.02;;;;;;;3.72;78.78;103090.50;5073207;28;20028;-75
2022/03/26 05:45:16;;;;;;;53.10;28.77;;;;;;;3.70;78.83;103092.28;5073326;28;20016;-75
2022/03/26 05:47:42;;;;;;;48.78;28.25;;;;;;;3.70;79.23;103097.47;5072567;28;20021;-75
2022/03/26 05:50:10;;;;;;;51.10;29.05;;;;;;;3.69;80.26;103100.97;5072667;28;20020;-76
2022/03/26 05:52:36;;;;;;;50.47;29.63;;;;;;;3.67;79.71;103100.97;5076004;28;20456;-75
2022/03/26 05:55:02;;;;;;;51.08;30.33;;;;;;;3.66;79.75;103106.19;5092705;28;20089;-76
2022/03/26 05:57:27;;;;;;;49.85;29.33;;;;;;;3.65;79.85;103107.94;5077530;28;20016;-76
2022/03/26 05:59:53;;;;;;;56.15;29.27;;;;;;;3.64;80.47;103101.00;5072955;28;20181;-76
2022/03/26 06:02:18;;;;;;;53.60;29.52;;;;;;;3.66;79.73;103119.22;5072784;28;20025;-76
2022/03/26 06:04:44;;;;;;;51.58;30.13;;;;;;;3.67;79.60;103127.00;5071997;28;20021;-76
2022/03/26 06:07:10;;;;;;;51.65;28.88;;;;;;;3.66;80.49;103124.41;5069844;28;20436;-76
2022/03/26 06:09:36;;;;;;;54.05;29.98;;;;;;;3.64;80.41;103127.03;5071685;28;20079;-76
2022/03/26 06:12:03;;;;;;;52.78;29.80;;;;;;;3.66;80.78;103125.28;5064883;28;20141;-75
2022/03/26 06:14:29;;;;;;;52.88;28.88;;;;;;;3.67;80.97;103126.16;5053140;28;20017;-76
2022/03/26 06:16:55;;;;;;;47.67;28.90;;;;;;;3.69;80.94;103125.25;5052248;28;20024;-76
2022/03/26 06:19:20;;;;;;;58.38;30.58;;;;;;;3.70;81.02;103126.97;5051636;28;20330;-76
2022/03/26 06:21:45;;;;;;;54.80;30.23;;;;;;;3.73;81.52;103126.94;5050787;28;20093;-73
2022/03/26 06:24:11;;;;;;;48.63;29.95;;;;;;;3.76;80.87;103116.50;5059214;28;20028;-76
2022/03/26 06:26:39;;;;;;;52.50;29.80;;;;;;;3.80;81.70;103121.69;5047484;28;20392;-76
2022/03/26 06:29:04;;;;;;;50.42;29.33;;;;;;;3.83;81.01;103122.50;5057277;28;20414;-76
2022/03/26 06:31:30;;;;;;;54.75;30.23;;;;;;;3.87;80.20;103124.22;5065365;28;20433;-76
2022/03/26 06:33:55;;;;;;;56.75;30.65;;;;;;;3.95;80.55;103129.34;5070822;28;20047;-76
2022/03/26 06:36:21;;;;;;;49.88;29.67;;;;;;;3.99;81.21;103131.03;5070938;28;20021;-77
2022/03/26 06:38:47;;;;;;;55.15;30.05;;;;;;;4.05;80.89;103133.59;5055156;28;20021;-76
2022/03/26 06:41:12;;;;;;;56.28;30.23;;;;;;;4.11;80.17;103127.47;5059403;28;20040;-77
2022/03/26 06:43:38;;;;;;;55.78;30.80;;;;;;;4.14;80.56;103136.09;5071122;28;20044;-76
2022/03/26 06:46:04;;;;;;;54.78;30.40;;;;;;;4.22;79.29;103141.22;5072192;28;20017;-77
2022/03/26 06:48:30;;;;;;;51.13;30.20;;;;;;;4.31;80.50;103142.00;5061398;28;20036;-76
2022/03/26 06:50:56;;;;;;;55.30;30.63;;;;;;;4.39;80.64;103139.28;5070592;28;20082;-76
2022/03/26 06:53:21;;;;;;;60.22;32.25;;;;;;;4.51;80.97;103147.00;5078132;28;20016;-76
2022/03/26 06:55:46;;;;;;;58.45;31.65;;;;;;;4.60;80.60;103146.00;5071036;28;20395;-76
2022/03/26 06:58:12;;;;;;;55.45;32.47;;;;;;;4.70;80.48;103145.00;5051057;28;20033;-76
2022/03/26 07:00:37;;;;;;;57.10;31.85;;;;;;;4.79;80.05;103142.28;5057135;28;20046;-77
2022/03/26 07:03:02;;;;;;;59.30;33.28;;;;;;;4.90;80.50;103140.41;5071581;28;20032;-76
2022/03/26 07:05:28;;;;;;;55.33;32.78;;;;;;;4.98;79.57;103140.31;5068535;28;20013;-78
2022/03/26 07:07:53;;;;;;;63.00;33.67;;;;;;;5.12;79.93;103147.94;5069776;28;20121;-78
2022/03/26 07:10:18;;;;;;;62.70;33.33;;;;;;;5.23;79.28;103146.06;5069101;28;20150;-78
2022/03/26 07:12:44;;;;;;;55.58;32.60;;;;;;;5.33;79.48;103153.72;5060115;28;20182;-76
2022/03/26 07:15:09;;;;;;;57.22;33.33;;;;;;;5.44;79.24;103143.09;5055769;28;20089;-76
2022/03/26 07:17:38;;;;;;;61.95;32.65;;;;;;;5.55;78.29;103148.16;5053941;28;20059;-76
2022/03/26 07:20:05;;;;;;;61.55;32.13;;;;;;;5.66;78.37;103149.72;5050552;28;20484;-76
2022/03/26 07:22:34;;;;;;;53.80;31.05;;;;;;;5.79;77.95;103152.13;5052142;28;20555;-76
2022/03/26 07:24:59;;;;;;;57.20;32.85;;;;;;;5.90;77.94;103147.59;5068351;28;20020;-76
2022/03/26 07:27:25;;;;;;;56.97;31.95;;;;;;;6.02;76.76;103144.78;5080261;28;20043;-75
2022/03/26 07:29:50;;;;;;;59.63;31.58;;;;;;;6.14;76.03;103149.78;5066183;28;20033;-75
2022/03/26 07:32:15;;;;;;;57.85;31.85;;;;;;;6.26;75.43;103153.91;5070340;28;20040;-75
2022/03/26 07:34:41;;;;;;;56.80;31.20;;;;;;;6.38;75.23;103152.81;5070343;28;20044;-75
2022/03/26 07:37:06;;;;;;;55.72;31.52;;;;;;;6.52;74.79;103148.19;5047962;28;20033;-75
2022/03/26 07:39:32;;;;;;;59.28;32.65;;;;;;;6.65;74.79;103157.50;5061240;28;20032;-78
2022/03/26 07:41:57;;;;;;;53.22;30.35;;;;;;;6.79;74.16;103151.97;5063727;28;20383;-77
2022/03/26 07:44:23;;;;;;;53.92;30.77;;;;;;;6.88;74.19;103155.28;5070301;28;20031;-77
2022/03/26 07:46:48;;;;;;;60.45;31.38;;;;;;;7.00;73.43;103161.13;5067343;28;20020;-77
2022/03/26 07:49:14;;;;;;;60.22;32.28;;;;;;;7.14;73.26;103159.06;5067249;28;20070;-77
2022/03/26 07:51:40;;;;;;;54.83;32.00;;;;;;;7.28;72.60;103159.63;5063528;28;20516;-77
2022/03/26 07:54:05;;;;;;;57.42;32.58;;;;;;;7.44;72.22;103157.50;5072215;28;20108;-77
2022/03/26 07:56:30;;;;;;;58.33;31.90;;;;;;;7.58;71.98;103151.91;5078680;28;20500;-77
2022/03/26 07:58:59;;;;;;;57.75;31.75;;;;;;;7.71;70.96;103154.22;5057258;28;20046;-76
2022/03/26 08:01:24;;;;;;;56.33;30.85;;;;;;;7.86;70.90;103163.44;5066782;28;20524;-77
2022/03/26 08:03:53;;;;;;;56.92;29.80;;;;;;;7.99;70.52;103158.72;5066780;28;20188;-75
2022/03/26 08:06:22;;;;;;;53.08;30.05;;;;;;;8.16;70.02;103167.03;5066105;28;20063;-75
2022/03/26 08:08:47;;;;;;;52.15;29.17;;;;;;;8.30;69.47;103164.03;5056096;28;20035;-77
2022/03/26 08:11:13;;;;;;;45.78;28.85;;;;;;;8.43;68.89;103166.34;5058175;28;20020;-77
2022/03/26 08:13:38;;;;;;;56.55;27.75;;;;;;;8.57;68.64;103157.22;5065113;28;20086;-77
2022/03/26 08:16:07;;;;;;;57.10;28.73;;;;;;;8.76;68.70;103159.25;5048046;28;20036;-77
2022/03/26 08:18:33;;;;;;;52.00;29.83;;;;;;;8.92;68.52;103158.81;5064843;28;20032;-75
2022/03/26 08:20:58;;;;;;;54.15;28.65;;;;;;;9.05;68.05;103160.16;5067016;28;20127;-74
2022/03/26 08:23:24;;;;;;;51.35;28.85;;;;;;;9.18;67.38;103166.72;5064412;28;20406;-74
2022/03/26 08:28:33;;;;;;;49.58;27.88;;;;;;;9.45;66.91;103158.91;5061025;28;20121;-75
2022/03/26 08:30:59;;;;;;;46.45;27.30;;;;;;;9.59;66.37;103167.19;5068468;28;20075;-74
2022/03/26 08:33:24;;;;;;;48.65;27.85;;;;;;;9.71;65.80;103162.41;5063104;28;20060;-77
2022/03/26 08:35:50;;;;;;;48.60;26.77;;;;;;;9.85;65.71;103169.81;5069035;28;20082;-76
2022/03/26 08:38:15;;;;;;;47.00;26.35;;;;;;;10.00;65.14;103169.28;5055733;28;20021;-77
2022/03/26 08:40:41;;;;;;;47.42;26.25;;;;;;;10.16;65.13;103169.66;5055322;28;20028;-76
2022/03/26 08:43:07;;;;;;;48.15;27.13;;;;;;;10.30;64.54;103171.81;5056165;28;20100;-77
2022/03/26 08:45:34;;;;;;;42.35;26.52;;;;;;;10.43;63.87;103177.50;5055862;28;20392;-77
2022/03/26 08:48:03;;;;;;;49.90;27.27;;;;;;;10.60;64.36;103172.47;5069899;28;20024;-76
2022/03/26 08:50:29;;;;;;;44.70;25.60;;;;;;;10.73;63.07;103175.50;5053570;28;20021;-76
2022/03/26 08:52:55;;;;;;;47.85;25.73;;;;;;;10.88;63.35;103167.06;5050445;28;20025;-77
2022/03/26 08:55:20;;;;;;;44.08;26.90;;;;;;;11.06;63.58;103171.59;5067964;28;20239;-76
2022/03/26 08:57:46;;;;;;;46.42;28.15;;;;;;;11.16;62.58;103165.06;5066693;28;20016;-77
2022/03/26 09:00:13;;;;;;;44.83;27.25;;;;;;;11.32;61.43;103169.75;5057444;28;20528;-76
2022/03/26 09:02:39;;;;;;;48.00;27.17;;;;;;;11.48;62.64;103168.19;5063572;28;20402;-76
2022/03/26 09:05:06;;;;;;;45.55;26.88;;;;;;;11.58;61.15;103166.88;5070577;28;20649;-76
2022/03/26 09:07:35;;;;;;;47.75;26.95;;;;;;;11.73;61.34;103168.91;5063673;28;20025;-76
2022/03/26 09:10:01;;;;;;;42.83;26.17;;;;;;;11.87;61.34;103171.84;5070742;28;20044;-76
2022/03/26 09:12:27;;;;;;;43.35;26.17;;;;;;;11.99;60.30;103167.81;5073192;28;20102;-75
2022/03/26 09:14:52;;;;;;;43.65;25.88;;;;;;;12.14;60.31;103180.38;5065511;28;20079;-76
2022/03/26 09:17:17;;;;;;;47.35;26.70;;;;;;;12.29;58.99;103178.00;5070933;28;20032;-76
2022/03/26 09:19:43;;;;;;;43.38;26.98;;;;;;;12.41;58.42;103175.69;5072913;28;20429;-76
2022/03/26 09:22:09;;;;;;;44.30;27.45;;;;;;;12.55;58.49;103180.34;5070204;28;20024;-76
2022/03/26 09:24:34;;;;;;;52.97;29.80;;;;;;;12.67;58.12;103186.84;5064695;28;20017;-76
2022/03/26 09:26:59;;;;;;;53.38;28.70;;;;;;;12.78;58.02;103184.56;5068813;28;20113;-76
2022/03/26 09:29:25;;;;;;;45.40;28.48;;;;;;;12.93;58.37;103175.97;5070159;28;20035;-76
2022/03/26 09:31:50;;;;;;;40.97;26.30;;;;;;;13.03;56.55;103179.00;5070215;28;20519;-76
2022/03/26 09:34:15;;;;;;;46.58;26.58;;;;;;;13.17;56.88;103180.09;5071976;28;20063;-76
2022/03/26 09:36:41;;;;;;;45.40;25.67;;;;;;;13.30;56.08;103176.91;5071869;28;20082;-76
2022/03/26 09:39:06;;;;;;;43.17;25.02;;;;;;;13.41;56.53;103169.28;5057819;28;20575;-76
2022/03/26 09:41:32;;;;;;;39.65;24.10;;;;;;;13.56;56.52;103170.31;5061025;28;20025;-77
2022/03/26 09:43:58;;;;;;;45.85;23.95;;;;;;;13.69;55.26;103171.44;5070807;28;20103;-76
2022/03/26 09:46:24;;;;;;;47.85;25.60;;;;;;;13.79;55.07;103162.97;5071781;28;20101;-74
2022/03/26 09:48:50;;;;;;;42.10;24.70;;;;;;;13.95;54.92;103170.97;5070257;28;20610;-74
2022/03/26 09:51:20;;;;;;;45.47;26.05;;;;;;;14.05;54.59;103164.28;5069746;28;20042;-76
2022/03/26 09:53:51;;;;;;;45.60;26.70;;;;;;;14.17;53.60;103164.56;5086788;28;20024;-76
2022/03/26 09:56:18;;;;;;;47.13;26.58;;;;;;;14.32;54.91;103154.03;5068735;28;20100;-76
2022/03/26 09:58:44;;;;;;;41.40;23.17;;;;;;;14.40;53.54;103161.56;5070808;28;20732;-76
2022/03/26 10:01:09;;;;;;;41.70;23.55;;;;;;;14.52;52.30;103157.47;5067601;28;20055;-76
2022/03/26 10:03:38;;;;;;;41.13;23.27;;;;;;;14.61;52.24;103155.16;5072681;28;20052;-77
2022/03/26 10:06:04;;;;;;;38.83;23.17;;;;;;;14.74;52.64;103155.34;5067882;28;21042;-77
2022/03/26 10:08:35;;;;;;;40.47;23.65;;;;;;;14.88;51.59;103163.41;5081956;28;20112;-75
2022/03/26 10:11:01;;;;;;;41.17;23.75;;;;;;;15.00;51.59;103162.72;5070237;28;20037;-75
2022/03/26 10:13:47;;;;;;;34.78;21.42;;;;;;;15.08;52.42;103156.13;5064262;28;20029;-76
2022/03/26 10:16:14;;;;;;;37.10;21.33;;;;;;;15.24;50.79;103155.19;5051750;28;20810;-76
2022/03/26 10:18:45;;;;;;;38.90;23.48;;;;;;;15.36;50.66;103158.94;5071931;28;20028;-76
2022/03/26 10:21:16;;;;;;;37.38;21.98;;;;;;;15.46;50.26;103151.31;5071458;28;20063;-76
2022/03/26 10:23:49;;;;;;;33.63;21.65;;;;;;;15.54;48.73;103163.19;5071987;28;20024;-76
2022/03/26 10:26:18;;;;;;;;;;;;;;;15.59;52.19;103161.13;5063659;28;20027;-78
2022/03/26 10:28:50;;;;;;;35.83;20.75;;;;;;;15.77;49.00;103158.38;5073817;28;20287;-78
2022/03/26 10:34:11;;;;;;;30.60;18.33;;;;;;;16.04;47.51;103162.06;5071025;28;20569;-78
2022/03/26 10:36:42;;;;;;;28.10;16.02;;;;;;;16.18;45.77;103154.09;5070922;28;20025;-78
2022/03/26 10:39:14;;;;;;;25.23;14.88;;;;;;;16.32;44.60;103149.72;5051907;28;20431;-76
2022/03/26 10:41:39;;;;;;;25.23;15.07;;;;;;;16.45;43.89;103150.69;5061255;28;20028;-77
2022/03/26 10:44:07;;;;;;;30.95;15.57;;;;;;;16.54;43.46;103155.44;5069567;28;20391;-77
2022/03/26 10:46:53;;;;;;;28.58;15.82;;;;;;;16.71;45.05;103144.63;5071747;28;20029;-77
2022/03/26 10:49:25;;;;;;;29.42;16.65;;;;;;;16.79;43.62;103142.31;5067226;28;20094;-76
2022/03/26 10:51:51;;;;;;;;;;;;;;;16.90;47.17;103141.66;5059664;28;20031;-77
2022/03/26 10:54:16;;;;;;;32.60;18.70;;;;;;;17.14;43.08;103133.88;5079635;28;19912;-77
2022/03/26 10:56:42;;;;;;;33.55;17.73;;;;;;;17.17;42.71;103139.84;5052558;28;20029;-76
2022/03/26 10:59:08;;;;;;;31.58;16.77;;;;;;;17.23;41.19;103138.63;5050797;28;20048;-76
2022/03/26 11:01:34;;;;;;;29.80;17.50;;;;;;;17.31;40.76;103133.66;5047179;28;20035;-76
2022/03/26 11:04:00;;;;;;;35.30;16.77;;;;;;;17.45;41.20;103130.91;5062073;28;20428;-76
2022/03/26 11:06:26;;;;;;;30.90;15.63;;;;;;;17.66;40.32;103125.97;5068467;28;20103;-77
2022/03/26 11:09:00;;;;;;;29.88;17.00;;;;;;;17.71;40.67;103131.03;5070319;28;20063;-77
2022/03/26 11:11:29;;;;;;;26.60;16.77;;;;;;;17.78;40.03;103130.50;5085553;28;20035;-77
2022/03/26 11:14:11;;;;;;;24.85;15.50;;;;;;;18.00;41.25;103123.69;5070278;28;20499;-77
2022/03/26 11:16:39;;;;;;;26.90;14.90;;;;;;;18.08;41.13;103132.88;5070279;28;20630;-77
2022/03/26 11:19:11;;;;;;;25.50;13.50;;;;;;;18.31;40.39;103125.91;5069743;28;20040;-77